createdAt,value
2022-08-19T00:01:31.376Z,100823.41
2022-08-19T00:03:59.395Z,100825.25
2022-08-19T00:06:27.615Z,100830.28
2022-08-19T00:08:54.109Z,100829.97
2022-08-19T00:11:26.047Z,100828.59
2022-08-19T00:13:53.418Z,100835.41
2022-08-19T00:16:26.191Z,100829.66
2022-08-19T00:18:54.332Z,100829.28
2022-08-19T00:21:20.936Z,100827.09
2022-08-19T00:23:47.558Z,100828.50
2022-08-19T00:26:14.158Z,100822.00
2022-08-19T00:28:42.108Z,100818.78
2022-08-19T00:31:09.758Z,100820.63
2022-08-19T00:33:36.701Z,100819.50
2022-08-19T00:36:07.330Z,100818.09
2022-08-19T00:38:37.951Z,100821.44
2022-08-19T00:41:06.319Z,100822.56
2022-08-19T00:43:33.143Z,100822.28
2022-08-19T00:46:00.320Z,100824.59
2022-08-19T00:48:26.946Z,100829.84
2022-08-19T00:50:55.247Z,100820.56
2022-08-19T00:53:25.132Z,100822.78
2022-08-19T00:55:55.878Z,100820.38
2022-08-19T00:58:28.293Z,100817.78
2022-08-19T01:00:55.058Z,100810.78
2022-08-19T01:03:22.676Z,100811.16
2022-08-19T01:05:52.899Z,100812.75
2022-08-19T01:08:20.981Z,100822.53
2022-08-19T01:10:52.369Z,100821.78
2022-08-19T01:13:24.521Z,100814.63
2022-08-19T01:15:58.465Z,100815.50
2022-08-19T01:18:26.021Z,100822.19
2022-08-19T01:20:55.138Z,100821.53
2022-08-19T01:23:21.586Z,100824.19
2022-08-19T01:25:51.268Z,100826.38
2022-08-19T01:28:39.912Z,100822.69
2022-08-19T01:31:08.674Z,100819.91
2022-08-19T01:33:35.349Z,100823.28
2022-08-19T01:36:11.628Z,100820.47
2022-08-19T01:38:44.085Z,100821.16
2022-08-19T01:41:12.590Z,100813.75
2022-08-19T01:43:39.556Z,100816.66
2022-08-19T01:46:26.022Z,100812.81
2022-08-19T01:48:52.480Z,100813.63
2022-08-19T01:51:19.022Z,100824.47
2022-08-19T01:53:49.381Z,100819.38
2022-08-19T01:56:16.964Z,100821.53
2022-08-19T01:58:51.509Z,100814.81
2022-08-19T02:01:19.125Z,100805.34
2022-08-19T02:03:46.870Z,100808.25
2022-08-19T02:06:13.607Z,100808.16
2022-08-19T02:08:41.078Z,100801.44
2022-08-19T02:11:08.291Z,100803.28
2022-08-19T02:13:35.257Z,100800.59
2022-08-19T02:16:01.729Z,100795.66
2022-08-19T02:18:30.962Z,100802.91
2022-08-19T02:20:57.348Z,100805.44
2022-08-19T02:23:23.920Z,100811.97
2022-08-19T02:25:53.020Z,100810.94
2022-08-19T02:28:19.448Z,100804.94
2022-08-19T02:30:47.735Z,100805.59
2022-08-19T02:33:14.701Z,100805.38
2022-08-19T02:35:46.110Z,100810.47
2022-08-19T02:38:28.346Z,100803.06
2022-08-19T02:41:01.432Z,100812.09
2022-08-19T02:43:33.669Z,100814.63
2022-08-19T02:46:01.339Z,100828.94
2022-08-19T02:48:27.805Z,100828.50
2022-08-19T02:50:57.073Z,100826.16
2022-08-19T02:53:25.650Z,100840.25
2022-08-19T02:55:52.614Z,100843.13
2022-08-19T02:58:20.343Z,100837.44
2022-08-19T03:00:51.472Z,100844.31
2022-08-19T03:03:18.946Z,100842.69
2022-08-19T03:05:46.969Z,100838.63
2022-08-19T03:08:16.041Z,100830.72
2022-08-19T03:10:45.267Z,100828.41
2022-08-19T03:13:14.228Z,100831.66
2022-08-19T03:15:45.729Z,100830.13
2022-08-19T03:18:12.571Z,100831.66
2022-08-19T03:20:48.397Z,100830.13
2022-08-19T03:23:16.457Z,100828.41
2022-08-19T03:25:46.373Z,100831.41
2022-08-19T03:28:14.628Z,100827.72
2022-08-19T03:30:43.594Z,100825.66
2022-08-19T03:33:17.979Z,100831.00
2022-08-19T03:36:08.138Z,100832.84
2022-08-19T03:38:36.812Z,100834.66
2022-08-19T03:41:07.320Z,100839.16
2022-08-19T03:43:39.099Z,100834.91
2022-08-19T03:46:09.223Z,100833.91
2022-08-19T03:48:37.060Z,100840.19
2022-08-19T03:51:04.439Z,100839.75
2022-08-19T03:53:32.541Z,100840.41
2022-08-19T03:56:00.957Z,100840.22
2022-08-19T03:58:29.757Z,100841.00
2022-08-19T04:00:57.719Z,100840.66
2022-08-19T04:03:27.304Z,100847.16
2022-08-19T04:05:54.594Z,100842.25
2022-08-19T04:08:23.323Z,100843.44
2022-08-19T04:10:50.141Z,100845.50
2022-08-19T04:13:18.215Z,100848.19
2022-08-19T04:15:47.200Z,100848.84
2022-08-19T04:18:14.806Z,100844.56
2022-08-19T04:20:47.843Z,100845.44
2022-08-19T04:23:15.413Z,100834.16
2022-08-19T04:25:44.053Z,100840.66
2022-08-19T04:28:13.477Z,100839.63
2022-08-19T04:30:45.852Z,100855.34
2022-08-19T04:33:14.037Z,100856.38
2022-08-19T04:35:43.502Z,100859.53
2022-08-19T04:38:10.802Z,100854.53
2022-08-19T04:41:04.726Z,100851.94
2022-08-19T04:43:32.105Z,100852.53
2022-08-19T04:46:00.892Z,100848.03
2022-08-19T04:48:27.981Z,100855.31
2022-08-19T04:50:58.590Z,100865.09
2022-08-19T04:53:37.653Z,100863.16
2022-08-19T04:56:08.236Z,100862.50
2022-08-19T04:58:34.798Z,100869.00
2022-08-19T05:01:01.401Z,100868.13
2022-08-19T05:03:30.544Z,100874.31
2022-08-19T05:05:57.116Z,100876.03
2022-08-19T05:08:30.836Z,100877.63
2022-08-19T05:10:58.299Z,100882.88
2022-08-19T05:13:25.331Z,100880.66
2022-08-19T05:15:57.222Z,100890.41
2022-08-19T05:18:42.975Z,100904.81
2022-08-19T05:21:31.105Z,100914.53
2022-08-19T05:23:58.325Z,100910.97
2022-08-19T05:26:26.891Z,100905.59
2022-08-19T05:28:54.663Z,100905.94
2022-08-19T05:31:21.952Z,100912.06
2022-08-19T05:33:48.433Z,100908.69
2022-08-19T05:36:15.114Z,100919.25
2022-08-19T05:38:41.562Z,100919.34
2022-08-19T05:41:12.847Z,100916.16
2022-08-19T05:43:39.478Z,100916.53
2022-08-19T05:46:07.033Z,100915.88
2022-08-19T05:48:34.468Z,100920.06
2022-08-19T05:51:07.237Z,100921.03
2022-08-19T05:53:34.567Z,100908.44
2022-08-19T05:56:17.034Z,100907.25
2022-08-19T05:58:45.771Z,100903.94
2022-08-19T06:01:18.619Z,100904.44
2022-08-19T06:03:45.920Z,100904.88
2022-08-19T06:06:14.338Z,100903.09
2022-08-19T06:08:40.856Z,100900.03
2022-08-19T06:11:24.160Z,100898.78
2022-08-19T06:13:59.815Z,100895.22
2022-08-19T06:16:27.805Z,100896.59
2022-08-19T06:18:57.835Z,100901.81
2022-08-19T06:21:28.213Z,100901.34
2022-08-19T06:23:56.375Z,100905.47
2022-08-19T06:26:24.452Z,100900.00
2022-08-19T06:28:51.351Z,100902.31
2022-08-19T06:31:21.314Z,100899.28
2022-08-19T06:33:48.983Z,100895.56
2022-08-19T06:36:32.619Z,100897.06
2022-08-19T06:38:59.928Z,100897.44
2022-08-19T06:41:27.407Z,100903.22
2022-08-19T06:43:55.728Z,100909.59
2022-08-19T06:46:23.459Z,100910.75
2022-08-19T06:48:50.855Z,100908.66
2022-08-19T06:51:21.724Z,100901.69
2022-08-19T06:56:31.972Z,100901.09
2022-08-19T06:58:59.270Z,100900.72
2022-08-19T07:01:25.700Z,100904.06
2022-08-19T07:03:52.085Z,100906.38
2022-08-19T07:09:09.468Z,100909.41
2022-08-19T07:11:36.120Z,100908.69
2022-08-19T07:14:03.072Z,100907.94
2022-08-19T07:16:30.112Z,100916.22
2022-08-19T07:18:57.594Z,100916.56
2022-08-19T07:21:29.454Z,100924.44
2022-08-19T07:23:57.885Z,100920.25
2022-08-19T07:26:30.679Z,100926.19
2022-08-19T07:28:59.674Z,100933.38
2022-08-19T07:31:28.478Z,100934.09
2022-08-19T07:33:57.857Z,100935.97
2022-08-19T07:36:33.065Z,100945.75
2022-08-19T07:39:02.453Z,100949.63
2022-08-19T07:41:31.543Z,100956.47
2022-08-19T07:44:04.485Z,100958.06
2022-08-19T07:46:32.912Z,100957.75
2022-08-19T07:48:59.755Z,100956.78
2022-08-19T07:51:35.992Z,100961.50
2022-08-19T07:54:04.331Z,100959.31
2022-08-19T07:56:30.938Z,100974.88
2022-08-19T07:58:57.401Z,100973.22
2022-08-19T08:01:27.153Z,100981.03
2022-08-19T08:04:13.949Z,100987.09
2022-08-19T08:06:58.667Z,100983.25
2022-08-19T08:09:32.060Z,100980.28
2022-08-19T08:12:13.336Z,100977.94
2022-08-19T08:14:55.924Z,100968.41
2022-08-19T08:17:40.707Z,100975.56
2022-08-19T08:20:15.188Z,100979.25
2022-08-19T08:23:06.722Z,100971.00
2022-08-19T08:25:34.309Z,100972.72
2022-08-19T08:28:02.381Z,100980.47
2022-08-19T08:30:32.578Z,100987.69
2022-08-19T08:32:59.532Z,100987.94
2022-08-19T08:35:26.339Z,100990.88
2022-08-19T08:37:55.296Z,100989.97
2022-08-19T08:40:51.524Z,100990.69
2022-08-19T08:43:35.788Z,100989.63
2022-08-19T08:46:03.952Z,100997.69
2022-08-19T08:48:40.831Z,100991.34
2022-08-19T08:51:20.343Z,100980.16
2022-08-19T08:53:49.469Z,100984.28
2022-08-19T08:56:17.146Z,100979.16
2022-08-19T08:59:00.130Z,100980.25
2022-08-19T09:01:30.445Z,100984.00
2022-08-19T09:03:57.705Z,100980.25
2022-08-19T09:07:17.951Z,100983.47
2022-08-19T09:09:57.364Z,100978.00
2022-08-19T09:12:39.237Z,100982.91
2022-08-19T09:15:12.801Z,100973.50
2022-08-19T09:17:40.374Z,100978.09
2022-08-19T09:20:19.806Z,100980.78
2022-08-19T09:22:46.979Z,100978.03
2022-08-19T09:25:17.942Z,100981.00
2022-08-19T09:27:55.357Z,100981.31
2022-08-19T09:30:33.822Z,100975.13
2022-08-19T09:33:00.375Z,100979.16
2022-08-19T09:35:30.477Z,100978.00
2022-08-19T09:37:59.736Z,100985.19
2022-08-19T09:40:30.303Z,100982.59
2022-08-19T09:42:58.659Z,100978.13
2022-08-19T09:45:25.125Z,100980.13
2022-08-19T09:47:54.284Z,100979.50
2022-08-19T09:50:22.565Z,100981.03
2022-08-19T09:52:55.596Z,100974.03
2022-08-19T09:55:31.115Z,100977.47
2022-08-19T09:57:58.884Z,100971.03
2022-08-19T10:00:25.369Z,100978.03
2022-08-19T10:02:51.786Z,100975.31
2022-08-19T10:05:38.693Z,100982.69
2022-08-19T10:08:13.789Z,100979.38
2022-08-19T10:10:47.187Z,100986.84
2022-08-19T10:13:17.580Z,100979.03
2022-08-19T10:15:47.571Z,100979.91
2022-08-19T10:18:19.343Z,100974.50
2022-08-19T10:20:51.466Z,100973.97
2022-08-19T10:23:21.483Z,100974.66
2022-08-19T10:25:48.710Z,100965.25
2022-08-19T10:28:15.251Z,100964.34
2022-08-19T10:30:42.891Z,100953.53
2022-08-19T10:33:11.264Z,100948.56
2022-08-19T10:35:42.554Z,100958.41
2022-08-19T10:38:22.829Z,100956.94
2022-08-19T10:40:58.225Z,100952.06
2022-08-19T10:43:25.819Z,100951.75
2022-08-19T10:46:02.600Z,100944.44
2022-08-19T10:48:29.971Z,100956.81
2022-08-19T10:51:22.949Z,100964.34
2022-08-19T10:53:50.994Z,100964.84
2022-08-19T10:56:37.213Z,100969.22
2022-08-19T10:59:05.092Z,100952.75
2022-08-19T11:01:34.213Z,100949.50
2022-08-19T11:04:03.178Z,100958.63
2022-08-19T11:06:31.148Z,100951.28
2022-08-19T11:08:57.789Z,100966.34
2022-08-19T11:11:24.491Z,100966.56
2022-08-19T11:13:53.951Z,100959.00
2022-08-19T11:16:23.771Z,100957.00
2022-08-19T11:18:53.158Z,100953.66
2022-08-19T11:21:35.248Z,100960.06
2022-08-19T11:24:06.842Z,100966.63
2022-08-19T11:26:34.612Z,100963.09
2022-08-19T11:29:01.886Z,100958.72
2022-08-19T11:31:34.248Z,100948.41
2022-08-19T11:34:04.017Z,100955.13
2022-08-19T11:36:32.286Z,100948.47
2022-08-19T11:38:58.963Z,100941.63
2022-08-19T11:41:26.556Z,100943.78
2022-08-19T11:43:56.297Z,100939.41
2022-08-19T11:46:25.389Z,100933.47
2022-08-19T11:48:53.034Z,100928.72
2022-08-19T11:51:22.751Z,100927.88
2022-08-19T11:53:50.412Z,100931.16
2022-08-19T11:56:17.555Z,100927.69
2022-08-19T11:58:44.523Z,100921.97
2022-08-19T12:01:13.610Z,100929.78
2022-08-19T12:03:40.394Z,100926.41
2022-08-19T12:06:09.395Z,100933.56
2022-08-19T12:08:35.990Z,100922.19
2022-08-19T12:11:03.019Z,100927.00
2022-08-19T12:13:31.105Z,100930.03
2022-08-19T12:15:59.314Z,100930.41
2022-08-19T12:18:25.992Z,100921.69
2022-08-19T12:20:55.455Z,100918.72
2022-08-19T12:23:21.922Z,100914.84
2022-08-19T12:25:52.683Z,100913.38
2022-08-19T12:28:21.085Z,100915.66
2022-08-19T12:30:48.203Z,100915.28
2022-08-19T12:33:15.438Z,100917.56
2022-08-19T12:35:45.688Z,100916.69
2022-08-19T12:38:15.655Z,100904.16
2022-08-19T12:40:42.674Z,100916.72
2022-08-19T12:43:09.524Z,100910.28
2022-08-19T12:45:36.206Z,100903.16
2022-08-19T12:48:32.826Z,100904.75
2022-08-19T12:50:51.713Z,100908.41
2022-08-19T12:53:18.596Z,100906.81
2022-08-19T12:55:45.017Z,100911.06
2022-08-19T12:58:11.502Z,100901.50
2022-08-19T13:00:37.995Z,100909.75
2022-08-19T13:03:04.449Z,100905.84
2022-08-19T13:05:34.217Z,100907.44
2022-08-19T13:08:01.449Z,100901.38
2022-08-19T13:10:32.497Z,100900.00
2022-08-19T13:13:00.550Z,100898.25
2022-08-19T13:15:29.406Z,100893.59
2022-08-19T13:17:56.919Z,100888.06
2022-08-19T13:20:24.057Z,100888.44
2022-08-19T13:22:51.055Z,100889.88
2022-08-19T13:25:20.331Z,100885.34
2022-08-19T13:27:48.044Z,100881.91
2022-08-19T13:30:35.140Z,100881.84
2022-08-19T13:33:15.553Z,100879.94
2022-08-19T13:35:45.518Z,100880.59
2022-08-19T13:38:12.582Z,100881.66
2022-08-19T13:40:40.068Z,100871.59
2022-08-19T13:43:17.676Z,100872.59
2022-08-19T13:45:56.626Z,100867.94
2022-08-19T13:48:24.444Z,100866.97
2022-08-19T13:50:50.904Z,100859.31
2022-08-19T13:53:18.154Z,100865.84
2022-08-19T13:55:44.997Z,100860.13
2022-08-19T13:58:12.263Z,100863.63
2022-08-19T14:00:44.850Z,100860.94
2022-08-19T14:03:11.990Z,100856.31
2022-08-19T14:05:39.030Z,100855.88
2022-08-19T14:08:05.578Z,100850.84
2022-08-19T14:10:32.882Z,100844.03
2022-08-19T14:13:01.681Z,100844.91
2022-08-19T14:15:29.622Z,100855.28
2022-08-19T14:17:57.068Z,100855.41
2022-08-19T14:20:25.995Z,100845.50
2022-08-19T14:22:53.773Z,100848.91
2022-08-19T14:25:23.333Z,100849.88
2022-08-19T14:27:50.192Z,100851.09
2022-08-19T14:30:19.744Z,100848.09
2022-08-19T14:32:46.262Z,100847.06
2022-08-19T14:35:15.193Z,100844.50
2022-08-19T14:37:45.442Z,100845.31
2022-08-19T14:40:15.479Z,100847.38
2022-08-19T14:42:42.771Z,100839.16
2022-08-19T14:45:10.742Z,100843.38
2022-08-19T14:47:38.282Z,100851.72
2022-08-19T14:50:17.917Z,100854.44
2022-08-19T14:52:48.788Z,100859.03
2022-08-19T14:55:16.852Z,100863.78
2022-08-19T14:57:44.017Z,100859.03
2022-08-19T15:00:15.045Z,100847.97
2022-08-19T15:02:42.525Z,100850.09
2022-08-19T15:05:09.558Z,100855.91
2022-08-19T15:07:36.086Z,100862.16
2022-08-19T15:10:02.963Z,100869.38
2022-08-19T15:12:29.402Z,100869.16
2022-08-19T15:14:57.053Z,100871.13
2022-08-19T15:17:35.385Z,100877.75
2022-08-19T15:20:13.384Z,100880.66
2022-08-19T15:22:40.930Z,100881.31
2022-08-19T15:25:11.749Z,100881.81
2022-08-19T15:27:39.967Z,100880.53
2022-08-19T15:30:09.146Z,100882.63
2022-08-19T15:32:37.254Z,100881.94
2022-08-19T15:35:05.902Z,100888.81
2022-08-19T15:37:32.377Z,100888.53
2022-08-19T15:40:06.406Z,100885.47
2022-08-19T15:42:33.922Z,100884.66
2022-08-19T15:45:01.073Z,100892.88
2022-08-19T15:47:34.650Z,100890.97
2022-08-19T15:50:05.532Z,100897.34
2022-08-19T15:52:31.985Z,100888.22
2022-08-19T15:55:00.346Z,100896.94
2022-08-19T15:57:26.712Z,100891.91
2022-08-19T16:00:11.741Z,100891.06
2022-08-19T16:02:56.665Z,100891.38
2022-08-19T16:05:45.593Z,100895.38
2022-08-19T16:08:12.325Z,100894.75
2022-08-19T16:10:39.602Z,100892.31
2022-08-19T16:13:06.169Z,100902.63
2022-08-19T16:15:33.807Z,100902.47
2022-08-19T16:18:04.146Z,100904.50
2022-08-19T16:20:31.373Z,100907.69
2022-08-19T16:22:59.954Z,100901.63
2022-08-19T16:25:29.878Z,100908.06
2022-08-19T16:28:07.111Z,100906.00
2022-08-19T16:30:39.902Z,100912.25
2022-08-19T16:33:07.020Z,100907.69
2022-08-19T16:35:33.717Z,100905.56
2022-08-19T16:38:00.589Z,100902.34
2022-08-19T16:40:27.840Z,100908.88
2022-08-19T16:42:54.241Z,100915.16
2022-08-19T16:45:21.902Z,100913.50
2022-08-19T16:47:48.318Z,100925.41
2022-08-19T16:50:14.764Z,100919.72
2022-08-19T16:52:41.235Z,100923.47
2022-08-19T16:55:08.454Z,100919.97
2022-08-19T16:57:34.931Z,100919.72
2022-08-19T17:00:08.733Z,100917.03
2022-08-19T17:02:35.258Z,100914.03
2022-08-19T17:05:02.020Z,100917.03
2022-08-19T17:07:32.191Z,100909.25
2022-08-19T17:10:00.943Z,100906.56
2022-08-19T17:12:32.258Z,100907.94
2022-08-19T17:15:00.691Z,100901.22
2022-08-19T17:17:29.407Z,100898.75
2022-08-19T17:19:56.387Z,100896.88
2022-08-19T17:22:22.803Z,100897.13
2022-08-19T17:24:49.255Z,100901.69
2022-08-19T17:27:15.786Z,100890.41
2022-08-19T17:29:46.415Z,100894.19
2022-08-19T17:32:13.745Z,100896.63
2022-08-19T17:34:40.131Z,100890.16
2022-08-19T17:37:06.531Z,100894.00
2022-08-19T17:39:32.950Z,100891.03
2022-08-19T17:42:06.388Z,100899.66
2022-08-19T17:44:36.417Z,100899.66
2022-08-19T17:47:04.194Z,100897.00
2022-08-19T17:49:30.599Z,100899.44
2022-08-19T17:52:00.211Z,100897.31
2022-08-19T17:54:33.283Z,100900.25
2022-08-19T17:57:01.162Z,100898.66
2022-08-19T17:59:29.942Z,100894.06
2022-08-19T18:01:57.168Z,100901.09
2022-08-19T18:04:25.363Z,100894.09
2022-08-19T18:06:55.095Z,100900.53
2022-08-19T18:09:41.230Z,100899.50
2022-08-19T18:12:10.956Z,100910.81
2022-08-19T18:14:40.448Z,100912.09
2022-08-19T18:17:11.152Z,100911.81
2022-08-19T18:19:41.970Z,100917.50
2022-08-19T18:22:29.501Z,100924.44
2022-08-19T18:24:58.503Z,100930.34
2022-08-19T18:27:27.065Z,100937.84
2022-08-19T18:29:59.237Z,100943.72
2022-08-19T18:32:32.329Z,100942.28
2022-08-19T18:35:03.964Z,100949.72
2022-08-19T18:37:30.336Z,100945.13
2022-08-19T18:40:15.396Z,100939.16
2022-08-19T18:43:04.894Z,100958.41
2022-08-19T18:45:50.314Z,100950.91
2022-08-19T18:48:35.588Z,100945.84
2022-08-19T18:51:02.411Z,100949.63
2022-08-19T18:53:32.218Z,100941.44
2022-08-19T18:55:59.566Z,100945.44
2022-08-19T18:58:32.054Z,100955.63
2022-08-19T19:00:59.568Z,100950.50
2022-08-19T19:03:26.679Z,100950.69
2022-08-19T19:05:53.396Z,100945.59
2022-08-19T19:08:19.859Z,100948.22
2022-08-19T19:10:47.624Z,100940.06
2022-08-19T19:13:17.368Z,100940.06
2022-08-19T19:15:43.919Z,100933.41
2022-08-19T19:18:13.325Z,100927.47
2022-08-19T19:20:42.949Z,100935.25
2022-08-19T19:23:09.459Z,100937.22
2022-08-19T19:25:50.590Z,100940.91
2022-08-19T19:28:23.779Z,100948.97
2022-08-19T19:30:50.202Z,100953.41
2022-08-19T19:33:16.581Z,100959.53
2022-08-19T19:35:47.034Z,100957.41
2022-08-19T19:38:13.991Z,100960.59
2022-08-19T19:40:40.400Z,100965.81
2022-08-19T19:43:06.817Z,100968.94
2022-08-19T19:45:33.476Z,100966.50
2022-08-19T19:48:00.527Z,100971.91
2022-08-19T19:50:30.077Z,100961.63
2022-08-19T19:52:57.474Z,100962.94
2022-08-19T19:55:26.553Z,100963.38
2022-08-19T19:57:53.911Z,100970.13
2022-08-19T20:00:21.512Z,100970.75
2022-08-19T20:02:50.646Z,100965.56
2022-08-19T20:05:21.118Z,100976.69
2022-08-19T20:08:06.634Z,100973.72
2022-08-19T20:10:33.398Z,100977.56
2022-08-19T20:13:02.666Z,100979.38
2022-08-19T20:15:31.245Z,100981.97
2022-08-19T20:17:59.272Z,100983.44
2022-08-19T20:20:26.619Z,100987.31
2022-08-19T20:22:53.813Z,100986.19
2022-08-19T20:25:22.235Z,100982.44
2022-08-19T20:27:49.690Z,100991.19
2022-08-19T20:30:19.862Z,100999.66
2022-08-19T20:32:47.074Z,100997.38
2022-08-19T20:35:15.282Z,100996.03
2022-08-19T20:37:42.023Z,101002.47
2022-08-19T20:40:13.296Z,101005.97
2022-08-19T20:42:41.566Z,101003.75
2022-08-19T20:45:18.242Z,101009.56
2022-08-19T20:47:56.618Z,101010.16
2022-08-19T20:50:23.276Z,101012.63
2022-08-19T20:52:53.569Z,101017.53
2022-08-19T20:55:21.951Z,101013.06
2022-08-19T20:57:49.069Z,101019.03
2022-08-19T21:00:15.939Z,101016.13
2022-08-19T21:02:42.393Z,101014.56
2022-08-19T21:05:09.031Z,101015.88
2022-08-19T21:07:49.144Z,101017.25
2022-08-19T21:10:16.059Z,101016.75
2022-08-19T21:12:44.250Z,101021.31
2022-08-19T21:15:11.156Z,101018.13
2022-08-19T21:17:37.625Z,101017.00
2022-08-19T21:20:05.634Z,101019.38
2022-08-19T21:22:32.072Z,101027.16
2022-08-19T21:24:58.435Z,101025.72
2022-08-19T21:27:24.823Z,101032.59
2022-08-19T21:29:51.685Z,101028.72
2022-08-19T21:32:19.720Z,101026.03
2022-08-19T21:34:46.909Z,101026.88
2022-08-19T21:37:25.082Z,101023.34
2022-08-19T21:39:52.659Z,101030.13
2022-08-19T21:42:19.154Z,101026.75
2022-08-19T21:44:46.127Z,101032.19
2022-08-19T21:47:12.826Z,101032.75
2022-08-19T21:49:39.304Z,101024.16
2022-08-19T21:52:06.834Z,101028.69
2022-08-19T21:54:38.545Z,101027.88
2022-08-19T21:57:10.132Z,101030.44
2022-08-19T21:59:43.719Z,101033.91
2022-08-19T22:02:21.816Z,101028.72
2022-08-19T22:04:50.701Z,101031.22
2022-08-19T22:07:18.765Z,101037.22
2022-08-19T22:09:47.074Z,101036.34
2022-08-19T22:12:27.234Z,101032.91
2022-08-19T22:14:54.555Z,101037.78
2022-08-19T22:17:22.626Z,101031.63
2022-08-19T22:19:52.414Z,101040.06
2022-08-19T22:22:30.958Z,101035.72
2022-08-19T22:25:14.255Z,101046.50
2022-08-19T22:28:00.579Z,101037.66
2022-08-19T22:30:33.539Z,101043.25
2022-08-19T22:33:04.258Z,101040.25
2022-08-19T22:35:34.409Z,101040.72
2022-08-19T22:38:02.130Z,101040.94
2022-08-19T22:40:30.232Z,101047.13
2022-08-19T22:43:02.146Z,101042.59
2022-08-19T22:45:30.160Z,101039.81
2022-08-19T22:47:57.158Z,101042.50
2022-08-19T22:50:24.009Z,101044.13
2022-08-19T22:52:58.520Z,101044.69
2022-08-19T22:55:26.568Z,101044.69
2022-08-19T22:57:54.315Z,101046.88
2022-08-19T23:00:22.768Z,101048.41
2022-08-19T23:02:51.325Z,101048.66
2022-08-19T23:05:22.194Z,101046.47
2022-08-19T23:07:52.704Z,101041.13
2022-08-19T23:10:27.652Z,101039.72
2022-08-19T23:12:57.014Z,101046.81
2022-08-19T23:15:26.222Z,101039.94
2022-08-19T23:17:54.879Z,101037.31
2022-08-19T23:20:22.569Z,101040.88
2022-08-19T23:22:52.462Z,101039.41
2022-08-19T23:25:21.842Z,101046.00
2022-08-19T23:28:08.016Z,101040.97
2022-08-19T23:30:40.617Z,101042.66
2022-08-19T23:33:21.307Z,101042.19
2022-08-19T23:35:48.197Z,101040.56
2022-08-19T23:38:14.567Z,101043.22
2022-08-19T23:40:40.984Z,101042.34
2022-08-19T23:43:09.775Z,101045.28
2022-08-19T23:45:41.253Z,101040.41
2022-08-19T23:48:18.263Z,101044.84
2022-08-19T23:50:45.650Z,101046.22
2022-08-19T23:53:13.522Z,101041.38
2022-08-19T23:55:42.856Z,101047.88
2022-08-19T23:58:10.496Z,101036.97
